sensor_id;sensor_type;location;lat;lon;timestamp;pressure;altitude;pressure_sealevel;temperature;humidity
63090;BME280;49174;43.198;27.824;2022-11-15T00:00:50;102487.03;;;8.71;94.20
63090;BME280;49174;43.198;27.824;2022-11-15T00:03:16;102483.78;;;8.68;93.54
63090;BME280;49174;43.198;27.824;2022-11-15T00:05:42;102480.81;;;8.71;93.94
63090;BME280;49174;43.198;27.824;2022-11-15T00:08:09;102478.13;;;8.71;93.85
63090;BME280;49174;43.198;27.824;2022-11-15T00:10:35;102483.97;;;8.66;93.70
63090;BME280;49174;43.198;27.824;2022-11-15T00:13:05;102478.56;;;8.66;94.11
63090;BME280;49174;43.198;27.824;2022-11-15T00:15:31;102479.84;;;8.72;94.43
63090;BME280;49174;43.198;27.824;2022-11-15T00:17:56;102479.97;;;8.70;94.27
63090;BME280;49174;43.198;27.824;2022-11-15T00:20:22;102469.75;;;8.74;93.95
63090;BME280;49174;43.198;27.824;2022-11-15T00:22:49;102465.81;;;8.68;93.74
63090;BME280;49174;43.198;27.824;2022-11-15T00:25:14;102468.94;;;8.64;93.31
63090;BME280;49174;43.198;27.824;2022-11-15T00:27:40;102476.88;;;8.56;93.43
63090;BME280;49174;43.198;27.824;2022-11-15T00:30:06;102475.59;;;8.60;93.96
63090;BME280;49174;43.198;27.824;2022-11-15T00:32:31;102464.97;;;8.58;93.83
63090;BME280;49174;43.198;27.824;2022-11-15T00:34:57;102468.63;;;8.57;93.86
63090;BME280;49174;43.198;27.824;2022-11-15T00:37:23;102460.13;;;8.52;94.34
63090;BME280;49174;43.198;27.824;2022-11-15T00:39:48;102466.66;;;8.49;94.53
63090;BME280;49174;43.198;27.824;2022-11-15T00:42:14;102459.00;;;8.55;94.01
63090;BME280;49174;43.198;27.824;2022-11-15T00:44:39;102456.75;;;8.60;94.18
63090;BME280;49174;43.198;27.824;2022-11-15T00:47:05;102462.44;;;8.66;95.39
63090;BME280;49174;43.198;27.824;2022-11-15T00:49:30;102460.59;;;8.67;94.68
63090;BME280;49174;43.198;27.824;2022-11-15T00:51:56;102461.25;;;8.69;94.86
63090;BME280;49174;43.198;27.824;2022-11-15T00:54:21;102452.78;;;8.64;94.30
63090;BME280;49174;43.198;27.824;2022-11-15T00:56:47;102444.41;;;8.57;93.88
63090;BME280;49174;43.198;27.824;2022-11-15T00:59:12;102445.41;;;8.66;94.15
63090;BME280;49174;43.198;27.824;2022-11-15T01:01:38;102447.81;;;8.69;94.46
63090;BME280;49174;43.198;27.824;2022-11-15T01:04:05;102445.84;;;8.71;95.10
63090;BME280;49174;43.198;27.824;2022-11-15T01:06:31;102436.78;;;8.72;94.83
63090;BME280;49174;43.198;27.824;2022-11-15T01:08:56;102431.81;;;8.67;94.64
63090;BME280;49174;43.198;27.824;2022-11-15T01:11:22;102444.69;;;8.73;95.36
63090;BME280;49174;43.198;27.824;2022-11-15T01:13:47;102437.75;;;8.71;94.67
63090;BME280;49174;43.198;27.824;2022-11-15T01:16:15;102438.19;;;8.76;95.05
63090;BME280;49174;43.198;27.824;2022-11-15T01:18:42;102441.72;;;8.77;94.13
63090;BME280;49174;43.198;27.824;2022-11-15T01:21:10;102438.31;;;8.84;92.96
63090;BME280;49174;43.198;27.824;2022-11-15T01:23:37;102445.38;;;8.85;93.34
63090;BME280;49174;43.198;27.824;2022-11-15T01:26:04;102445.25;;;8.77;93.34
63090;BME280;49174;43.198;27.824;2022-11-15T01:28:35;102440.03;;;8.76;94.04
63090;BME280;49174;43.198;27.824;2022-11-15T01:31:03;102434.63;;;8.85;93.50
63090;BME280;49174;43.198;27.824;2022-11-15T01:33:30;102438.88;;;8.88;92.98
63090;BME280;49174;43.198;27.824;2022-11-15T01:35:55;102432.34;;;8.90;92.42
63090;BME280;49174;43.198;27.824;2022-11-15T01:38:22;102438.88;;;8.88;93.07
63090;BME280;49174;43.198;27.824;2022-11-15T01:40:49;102440.84;;;8.86;92.89
63090;BME280;49174;43.198;27.824;2022-11-15T01:45:52;102427.13;;;8.79;93.69
63090;BME280;49174;43.198;27.824;2022-11-15T01:48:20;102435.91;;;8.81;93.82
63090;BME280;49174;43.198;27.824;2022-11-15T01:50:46;102434.19;;;8.80;93.61
63090;BME280;49174;43.198;27.824;2022-11-15T01:53:12;102434.78;;;8.84;94.40
63090;BME280;49174;43.198;27.824;2022-11-15T01:55:38;102428.09;;;8.88;95.21
63090;BME280;49174;43.198;27.824;2022-11-15T01:58:04;102430.66;;;8.89;94.46
63090;BME280;49174;43.198;27.824;2022-11-15T02:00:31;102425.84;;;8.93;93.90
63090;BME280;49174;43.198;27.824;2022-11-15T02:02:57;102420.16;;;8.96;93.55
63090;BME280;49174;43.198;27.824;2022-11-15T02:05:23;102421.16;;;8.95;93.71
63090;BME280;49174;43.198;27.824;2022-11-15T02:07:49;102424.69;;;8.95;93.48
63090;BME280;49174;43.198;27.824;2022-11-15T02:10:20;102418.47;;;8.95;94.17
63090;BME280;49174;43.198;27.824;2022-11-15T02:12:47;102423.56;;;8.98;93.70
63090;BME280;49174;43.198;27.824;2022-11-15T02:15:13;102425.69;;;8.94;94.97
63090;BME280;49174;43.198;27.824;2022-11-15T02:18:07;102422.00;;;8.95;95.63
63090;BME280;49174;43.198;27.824;2022-11-15T02:20:43;102414.22;;;8.92;95.74
63090;BME280;49174;43.198;27.824;2022-11-15T02:39:39;102409.25;;;8.88;97.20
63090;BME280;49174;43.198;27.824;2022-11-15T02:42:35;102410.41;;;8.85;97.37
63090;BME280;49174;43.198;27.824;2022-11-15T02:45:26;102415.34;;;8.80;97.25
63090;BME280;49174;43.198;27.824;2022-11-15T02:47:55;102404.88;;;8.77;97.58
63090;BME280;49174;43.198;27.824;2022-11-15T02:50:25;102407.56;;;8.77;97.57
63090;BME280;49174;43.198;27.824;2022-11-15T02:52:52;102404.59;;;8.80;97.68
63090;BME280;49174;43.198;27.824;2022-11-15T02:55:31;102396.53;;;8.80;98.15
63090;BME280;49174;43.198;27.824;2022-11-15T03:01:00;102392.31;;;8.78;97.83
63090;BME280;49174;43.198;27.824;2022-11-15T03:07:24;102395.00;;;8.78;98.33
63090;BME280;49174;43.198;27.824;2022-11-15T03:09:32;102393.72;;;8.72;97.86
63090;BME280;49174;43.198;27.824;2022-11-15T03:12:07;102391.31;;;8.69;97.33
63090;BME280;49174;43.198;27.824;2022-11-15T03:14:43;102385.91;;;8.69;97.29
63090;BME280;49174;43.198;27.824;2022-11-15T03:17:24;102395.56;;;8.71;97.29
63090;BME280;49174;43.198;27.824;2022-11-15T03:19:54;102392.31;;;8.68;97.26
63090;BME280;49174;43.198;27.824;2022-11-15T03:22:23;102387.78;;;8.59;97.17
63090;BME280;49174;43.198;27.824;2022-11-15T03:24:54;102384.25;;;8.58;97.99
63090;BME280;49174;43.198;27.824;2022-11-15T03:27:23;102377.03;;;8.59;98.06
63090;BME280;49174;43.198;27.824;2022-11-15T03:29:56;102378.59;;;8.61;98.29
63090;BME280;49174;43.198;27.824;2022-11-15T03:32:29;102377.16;;;8.67;97.91
63090;BME280;49174;43.198;27.824;2022-11-15T03:37:36;102363.28;;;8.62;97.47
63090;BME280;49174;43.198;27.824;2022-11-15T03:40:05;102364.00;;;8.54;97.49
63090;BME280;49174;43.198;27.824;2022-11-15T03:45:19;102367.69;;;8.53;97.72
63090;BME280;49174;43.198;27.824;2022-11-15T03:48:17;102361.88;;;8.58;97.71
63090;BME280;49174;43.198;27.824;2022-11-15T03:50:45;102355.81;;;8.56;97.46
63090;BME280;49174;43.198;27.824;2022-11-15T03:53:12;102354.25;;;8.53;97.87
63090;BME280;49174;43.198;27.824;2022-11-15T03:55:39;102348.03;;;8.53;97.57
63090;BME280;49174;43.198;27.824;2022-11-15T03:58:05;102345.03;;;8.56;98.01
63090;BME280;49174;43.198;27.824;2022-11-15T04:00:30;102347.72;;;8.56;97.81
63090;BME280;49174;43.198;27.824;2022-11-15T04:02:56;102349.41;;;8.57;97.96
63090;BME280;49174;43.198;27.824;2022-11-15T04:05:22;102348.13;;;8.61;98.08
63090;BME280;49174;43.198;27.824;2022-11-15T04:07:47;102345.72;;;8.58;97.80
63090;BME280;49174;43.198;27.824;2022-11-15T04:10:13;102349.13;;;8.60;98.00
63090;BME280;49174;43.198;27.824;2022-11-15T04:12:41;102347.84;;;8.64;97.39
63090;BME280;49174;43.198;27.824;2022-11-15T04:15:20;102352.22;;;8.65;96.94
63090;BME280;49174;43.198;27.824;2022-11-15T04:17:51;102350.41;;;8.56;97.08
63090;BME280;49174;43.198;27.824;2022-11-15T04:20:22;102348.28;;;8.59;98.05
63090;BME280;49174;43.198;27.824;2022-11-15T04:23:10;102350.97;;;8.59;97.98
63090;BME280;49174;43.198;27.824;2022-11-15T04:25:56;102353.50;;;8.61;97.55
63090;BME280;49174;43.198;27.824;2022-11-15T04:28:22;102355.34;;;8.60;96.48
63090;BME280;49174;43.198;27.824;2022-11-15T04:30:47;102347.44;;;8.59;96.30
63090;BME280;49174;43.198;27.824;2022-11-15T04:33:13;102343.44;;;8.63;96.34
63090;BME280;49174;43.198;27.824;2022-11-15T04:35:39;102343.88;;;8.68;96.65
63090;BME280;49174;43.198;27.824;2022-11-15T04:38:06;102342.19;;;8.67;95.69
63090;BME280;49174;43.198;27.824;2022-11-15T04:40:32;102342.91;;;8.59;96.00
63090;BME280;49174;43.198;27.824;2022-11-15T04:42:58;102338.53;;;8.58;96.22
63090;BME280;49174;43.198;27.824;2022-11-15T04:45:24;102341.75;;;8.62;96.49
63090;BME280;49174;43.198;27.824;2022-11-15T04:47:49;102340.75;;;8.63;96.39
63090;BME280;49174;43.198;27.824;2022-11-15T04:50:15;102337.34;;;8.61;96.61
63090;BME280;49174;43.198;27.824;2022-11-15T04:52:50;102340.03;;;8.61;97.46
63090;BME280;49174;43.198;27.824;2022-11-15T04:55:16;102339.22;;;8.60;97.41
63090;BME280;49174;43.198;27.824;2022-11-15T05:18:53;102332.97;;;8.60;98.52
63090;BME280;49174;43.198;27.824;2022-11-15T05:34:49;102346.97;;;8.73;98.73
63090;BME280;49174;43.198;27.824;2022-11-15T05:37:15;102348.81;;;8.72;98.84
63090;BME280;49174;43.198;27.824;2022-11-15T05:42:24;102342.00;;;8.78;99.13
63090;BME280;49174;43.198;27.824;2022-11-15T05:47:33;102347.22;;;8.80;99.49
63090;BME280;49174;43.198;27.824;2022-11-15T05:52:51;102342.25;;;8.85;99.24
63090;BME280;49174;43.198;27.824;2022-11-15T05:58:13;102344.00;;;8.76;98.76
63090;BME280;49174;43.198;27.824;2022-11-15T06:11:26;102343.22;;;8.93;99.66
63090;BME280;49174;43.198;27.824;2022-11-15T06:16:41;102344.19;;;9.02;99.28
63090;BME280;49174;43.198;27.824;2022-11-15T06:19:07;102334.84;;;9.06;99.21
63090;BME280;49174;43.198;27.824;2022-11-15T06:21:33;102348.28;;;9.06;98.75
63090;BME280;49174;43.198;27.824;2022-11-15T08:10:19;102325.59;;;10.18;89.16
63090;BME280;49174;43.198;27.824;2022-11-15T08:12:46;102325.81;;;10.24;90.66
63090;BME280;49174;43.198;27.824;2022-11-15T08:23:39;102322.91;;;10.36;88.49
63090;BME280;49174;43.198;27.824;2022-11-15T08:37:48;102318.06;;;10.65;87.99
63090;BME280;49174;43.198;27.824;2022-11-15T10:15:15;102197.47;;;12.31;79.01
63090;BME280;49174;43.198;27.824;2022-11-15T10:18:39;102193.91;;;12.30;79.87
63090;BME280;49174;43.198;27.824;2022-11-15T10:20:56;102179.69;;;12.37;79.70
63090;BME280;49174;43.198;27.824;2022-11-15T10:28:47;102168.03;;;12.36;80.23
63090;BME280;49174;43.198;27.824;2022-11-15T10:34:22;102163.63;;;12.43;81.64
63090;BME280;49174;43.198;27.824;2022-11-15T10:36:59;102154.75;;;12.58;80.56
63090;BME280;49174;43.198;27.824;2022-11-15T10:39:27;102151.72;;;12.52;78.79
63090;BME280;49174;43.198;27.824;2022-11-15T10:41:54;102153.56;;;12.60;78.53
63090;BME280;49174;43.198;27.824;2022-11-15T10:49:27;102135.34;;;12.85;78.60
63090;BME280;49174;43.198;27.824;2022-11-15T10:52:16;102148.84;;;12.93;78.03
63090;BME280;49174;43.198;27.824;2022-11-15T10:57:18;102134.94;;;12.96;78.07
63090;BME280;49174;43.198;27.824;2022-11-15T10:59:47;102128.84;;;12.94;76.68
63090;BME280;49174;43.198;27.824;2022-11-15T11:05:31;102125.72;;;13.06;76.21
63090;BME280;49174;43.198;27.824;2022-11-15T11:41:50;102064.16;;;13.60;76.12
63090;BME280;49174;43.198;27.824;2022-11-15T12:13:56;102026.53;;;14.17;73.99
63090;BME280;49174;43.198;27.824;2022-11-15T12:16:27;102023.28;;;14.21;73.35
63090;BME280;49174;43.198;27.824;2022-11-15T12:18:55;102021.19;;;14.23;72.33
63090;BME280;49174;43.198;27.824;2022-11-15T12:23:59;102007.50;;;14.31;72.81
63090;BME280;49174;43.198;27.824;2022-11-15T12:26:32;102004.41;;;14.35;72.42
63090;BME280;49174;43.198;27.824;2022-11-15T12:31:42;102006.44;;;14.11;71.15
63090;BME280;49174;43.198;27.824;2022-11-15T12:34:29;101998.31;;;13.81;69.64
63090;BME280;49174;43.198;27.824;2022-11-15T12:36:55;101994.28;;;13.77;70.86
63090;BME280;49174;43.198;27.824;2022-11-15T12:40:02;101991.19;;;13.95;74.65
63090;BME280;49174;43.198;27.824;2022-11-15T12:47:25;101986.03;;;14.15;71.64
63090;BME280;49174;43.198;27.824;2022-11-15T12:49:51;101981.00;;;13.82;69.45
63090;BME280;49174;43.198;27.824;2022-11-15T12:52:18;101975.00;;;13.87;71.86
63090;BME280;49174;43.198;27.824;2022-11-15T13:02:37;101966.06;;;13.57;74.46
63090;BME280;49174;43.198;27.824;2022-11-15T13:08:07;101966.63;;;13.82;73.31
63090;BME280;49174;43.198;27.824;2022-11-15T13:10:34;101960.06;;;13.76;71.92
63090;BME280;49174;43.198;27.824;2022-11-15T13:13:08;101956.50;;;13.76;71.67
63090;BME280;49174;43.198;27.824;2022-11-15T13:15:38;101952.59;;;13.63;71.53
63090;BME280;49174;43.198;27.824;2022-11-15T13:23:29;101936.13;;;13.65;71.39
63090;BME280;49174;43.198;27.824;2022-11-15T13:28:37;101940.16;;;13.02;73.54
63090;BME280;49174;43.198;27.824;2022-11-15T13:33:45;101932.44;;;13.13;75.30
63090;BME280;49174;43.198;27.824;2022-11-15T13:36:22;101928.88;;;13.13;75.40
63090;BME280;49174;43.198;27.824;2022-11-15T13:39:03;101929.34;;;13.16;74.80
63090;BME280;49174;43.198;27.824;2022-11-15T13:41:31;101926.56;;;13.25;74.51
63090;BME280;49174;43.198;27.824;2022-11-15T13:43:58;101921.84;;;13.27;74.58
63090;BME280;49174;43.198;27.824;2022-11-15T13:46:26;101921.97;;;13.25;74.01
63090;BME280;49174;43.198;27.824;2022-11-15T13:48:58;101917.66;;;13.16;74.08
63090;BME280;49174;43.198;27.824;2022-11-15T13:54:01;101908.59;;;13.09;75.41
63090;BME280;49174;43.198;27.824;2022-11-15T13:56:27;101908.59;;;13.09;75.11
63090;BME280;49174;43.198;27.824;2022-11-15T13:58:54;101915.13;;;13.14;74.73
63090;BME280;49174;43.198;27.824;2022-11-15T14:01:21;101911.00;;;13.04;74.98
63090;BME280;49174;43.198;27.824;2022-11-15T14:03:51;101908.41;;;12.95;75.16
63090;BME280;49174;43.198;27.824;2022-11-15T14:06:19;101902.84;;;12.89;75.51
63090;BME280;49174;43.198;27.824;2022-11-15T14:09:14;101902.25;;;12.79;75.72
63090;BME280;49174;43.198;27.824;2022-11-15T14:11:55;101893.00;;;12.73;76.29
63090;BME280;49174;43.198;27.824;2022-11-15T14:14:22;101894.00;;;12.57;76.25
63090;BME280;49174;43.198;27.824;2022-11-15T14:16:59;101892.75;;;12.45;76.75
63090;BME280;49174;43.198;27.824;2022-11-15T14:24:42;101876.50;;;11.99;80.13
63090;BME280;49174;43.198;27.824;2022-11-15T14:29:49;101883.09;;;11.57;83.21
63090;BME280;49174;43.198;27.824;2022-11-15T14:32:23;101877.72;;;11.49;83.59
63090;BME280;49174;43.198;27.824;2022-11-15T14:34:54;101868.53;;;11.27;85.00
63090;BME280;49174;43.198;27.824;2022-11-15T14:37:24;101866.19;;;11.15;85.76
63090;BME280;49174;43.198;27.824;2022-11-15T14:39:50;101855.91;;;11.11;86.92
63090;BME280;49174;43.198;27.824;2022-11-15T14:42:17;101857.63;;;11.04;86.60
63090;BME280;49174;43.198;27.824;2022-11-15T14:44:42;101854.09;;;10.95;87.26
63090;BME280;49174;43.198;27.824;2022-11-15T14:47:08;101847.69;;;10.88;87.97
63090;BME280;49174;43.198;27.824;2022-11-15T14:49:34;101852.25;;;10.95;88.30
63090;BME280;49174;43.198;27.824;2022-11-15T14:51:59;101849.69;;;10.94;87.84
63090;BME280;49174;43.198;27.824;2022-11-15T14:54:25;101847.00;;;10.94;88.54
63090;BME280;49174;43.198;27.824;2022-11-15T14:56:50;101854.13;;;10.87;88.90
63090;BME280;49174;43.198;27.824;2022-11-15T14:59:16;101847.53;;;10.81;89.55
63090;BME280;49174;43.198;27.824;2022-11-15T15:01:41;101852.06;;;10.89;91.04
63090;BME280;49174;43.198;27.824;2022-11-15T15:04:09;101855.28;;;10.92;90.19
63090;BME280;49174;43.198;27.824;2022-11-15T15:06:35;101854.13;;;10.87;89.91
63090;BME280;49174;43.198;27.824;2022-11-15T15:09:00;101851.69;;;11.00;90.31
63090;BME280;49174;43.198;27.824;2022-11-15T15:11:28;101850.03;;;10.91;89.86
63090;BME280;49174;43.198;27.824;2022-11-15T15:13:54;101854.13;;;10.79;91.69
63090;BME280;49174;43.198;27.824;2022-11-15T15:16:24;101849.91;;;10.76;91.36
63090;BME280;49174;43.198;27.824;2022-11-15T15:18:50;101849.72;;;10.69;91.56
63090;BME280;49174;43.198;27.824;2022-11-15T15:21:24;101838.63;;;10.64;92.57
63090;BME280;49174;43.198;27.824;2022-11-15T15:23:50;101840.47;;;10.64;92.05
63090;BME280;49174;43.198;27.824;2022-11-15T15:26:16;101834.06;;;10.65;92.39
63090;BME280;49174;43.198;27.824;2022-11-15T15:28:42;101837.59;;;10.65;93.59
63090;BME280;49174;43.198;27.824;2022-11-15T15:31:09;101837.75;;;10.64;93.40
63090;BME280;49174;43.198;27.824;2022-11-15T15:33:35;101834.22;;;10.63;93.16
63090;BME280;49174;43.198;27.824;2022-11-15T15:36:03;101836.91;;;10.71;93.41
63090;BME280;49174;43.198;27.824;2022-11-15T15:38:29;101830.50;;;10.72;94.03
63090;BME280;49174;43.198;27.824;2022-11-15T15:40:55;101837.09;;;10.78;93.58
63090;BME280;49174;43.198;27.824;2022-11-15T15:43:20;101831.84;;;10.85;93.07
63090;BME280;49174;43.198;27.824;2022-11-15T15:45:46;101829.97;;;10.93;92.75
63090;BME280;49174;43.198;27.824;2022-11-15T15:48:16;101829.25;;;11.00;92.25
63090;BME280;49174;43.198;27.824;2022-11-15T15:50:42;101836.03;;;11.04;92.49
63090;BME280;49174;43.198;27.824;2022-11-15T15:53:16;101824.50;;;11.18;91.39
63090;BME280;49174;43.198;27.824;2022-11-15T15:55:42;101828.38;;;11.15;92.34
63090;BME280;49174;43.198;27.824;2022-11-15T16:03:19;101817.69;;;11.22;92.16
63090;BME280;49174;43.198;27.824;2022-11-15T16:05:45;101807.19;;;11.35;91.91
63090;BME280;49174;43.198;27.824;2022-11-15T16:08:23;101806.16;;;11.36;91.21
63090;BME280;49174;43.198;27.824;2022-11-15T16:10:50;101808.38;;;11.33;90.89
63090;BME280;49174;43.198;27.824;2022-11-15T16:13:16;101803.56;;;11.20;91.61
63090;BME280;49174;43.198;27.824;2022-11-15T16:15:43;101806.28;;;11.12;92.58
63090;BME280;49174;43.198;27.824;2022-11-15T16:18:14;101810.69;;;11.05;93.50
63090;BME280;49174;43.198;27.824;2022-11-15T16:20:42;101812.06;;;11.01;93.61
63090;BME280;49174;43.198;27.824;2022-11-15T16:23:11;101798.03;;;10.97;93.93
63090;BME280;49174;43.198;27.824;2022-11-15T16:25:54;101800.59;;;10.99;94.89
63090;BME280;49174;43.198;27.824;2022-11-15T16:28:28;101806.47;;;11.02;94.16
63090;BME280;49174;43.198;27.824;2022-11-15T16:31:04;101797.38;;;11.03;94.15
63090;BME280;49174;43.198;27.824;2022-11-15T16:33:30;101800.59;;;10.99;94.36
63090;BME280;49174;43.198;27.824;2022-11-15T16:35:56;101795.34;;;10.97;94.89
63090;BME280;49174;43.198;27.824;2022-11-15T16:38:21;101799.22;;;10.94;95.23
63090;BME280;49174;43.198;27.824;2022-11-15T16:40:47;101792.16;;;10.93;95.11
63090;BME280;49174;43.198;27.824;2022-11-15T16:43:12;101802.13;;;10.93;94.61
63090;BME280;49174;43.198;27.824;2022-11-15T16:45:38;101791.66;;;10.90;94.95
63090;BME280;49174;43.198;27.824;2022-11-15T17:01:35;101772.38;;;11.01;96.41
63090;BME280;49174;43.198;27.824;2022-11-15T17:04:03;101768.53;;;10.95;96.54
63090;BME280;49174;43.198;27.824;2022-11-15T17:09:20;101779.69;;;10.92;96.19
63090;BME280;49174;43.198;27.824;2022-11-15T17:11:49;101779.84;;;10.91;96.32
63090;BME280;49174;43.198;27.824;2022-11-15T17:16:44;101774.63;;;10.89;96.07
63090;BME280;49174;43.198;27.824;2022-11-15T17:19:15;101783.03;;;10.94;96.00
63090;BME280;49174;43.198;27.824;2022-11-15T17:27:05;101765.97;;;11.33;93.88
63090;BME280;49174;43.198;27.824;2022-11-15T17:29:31;101762.75;;;11.38;94.33
63090;BME280;49174;43.198;27.824;2022-11-15T17:31:57;101763.25;;;11.41;94.59
63090;BME280;49174;43.198;27.824;2022-11-15T17:34:22;101762.34;;;11.49;93.39
63090;BME280;49174;43.198;27.824;2022-11-15T17:36:49;101757.78;;;11.50;93.86
63090;BME280;49174;43.198;27.824;2022-11-15T17:39:15;101753.56;;;11.47;93.49
63090;BME280;49174;43.198;27.824;2022-11-15T17:41:40;101754.97;;;11.43;93.78
63090;BME280;49174;43.198;27.824;2022-11-15T17:44:06;101758.34;;;11.45;93.30
63090;BME280;49174;43.198;27.824;2022-11-15T17:46:31;101750.88;;;11.47;92.09
63090;BME280;49174;43.198;27.824;2022-11-15T17:48:58;101745.16;;;11.42;92.45
63090;BME280;49174;43.198;27.824;2022-11-15T17:51:25;101748.22;;;11.39;93.31
63090;BME280;49174;43.198;27.824;2022-11-15T17:53:50;101741.50;;;11.35;93.19
63090;BME280;49174;43.198;27.824;2022-11-15T17:56:22;101740.88;;;11.25;92.49
63090;BME280;49174;43.198;27.824;2022-11-15T17:58:50;101733.66;;;11.17;92.34
63090;BME280;49174;43.198;27.824;2022-11-15T18:01:27;101730.81;;;11.10;92.21
63090;BME280;49174;43.198;27.824;2022-11-15T18:03:54;101731.22;;;10.99;91.62
63090;BME280;49174;43.198;27.824;2022-11-15T18:06:35;101735.47;;;10.85;92.11
63090;BME280;49174;43.198;27.824;2022-11-15T18:09:02;101733.50;;;10.71;93.32
63090;BME280;49174;43.198;27.824;2022-11-15T18:11:30;101728.63;;;10.66;92.18
63090;BME280;49174;43.198;27.824;2022-11-15T18:13:59;101727.31;;;10.54;91.55
63090;BME280;49174;43.198;27.824;2022-11-15T18:16:27;101737.13;;;10.39;92.47
63090;BME280;49174;43.198;27.824;2022-11-15T18:18:53;101731.25;;;10.27;93.20
63090;BME280;49174;43.198;27.824;2022-11-15T18:21:27;101739.50;;;10.17;93.07
63090;BME280;49174;43.198;27.824;2022-11-15T18:23:57;101728.19;;;10.14;93.27
63090;BME280;49174;43.198;27.824;2022-11-15T18:26:26;101734.44;;;10.06;94.77
63090;BME280;49174;43.198;27.824;2022-11-15T18:28:54;101734.78;;;10.03;91.16
63090;BME280;49174;43.198;27.824;2022-11-15T18:31:25;101736.78;;;9.84;92.19
63090;BME280;49174;43.198;27.824;2022-11-15T18:33:51;101735.09;;;9.67;92.92
63090;BME280;49174;43.198;27.824;2022-11-15T18:36:22;101736.75;;;9.52;92.88
63090;BME280;49174;43.198;27.824;2022-11-15T18:38:56;101740.44;;;9.43;93.57
63090;BME280;49174;43.198;27.824;2022-11-15T18:41:22;101733.34;;;9.33;94.74
63090;BME280;49174;43.198;27.824;2022-11-15T18:43:56;101736.66;;;9.19;94.99
63090;BME280;49174;43.198;27.824;2022-11-15T18:46:24;101737.66;;;9.10;96.93
63090;BME280;49174;43.198;27.824;2022-11-15T18:48:52;101739.31;;;9.11;99.00
63090;BME280;49174;43.198;27.824;2022-11-15T18:51:20;101735.47;;;9.13;99.16
63090;BME280;49174;43.198;27.824;2022-11-15T18:53:47;101734.94;;;9.10;99.44
63090;BME280;49174;43.198;27.824;2022-11-15T18:56:15;101728.88;;;9.08;99.44
63090;BME280;49174;43.198;27.824;2022-11-15T18:58:43;101726.38;;;9.06;99.84
63090;BME280;49174;43.198;27.824;2022-11-15T19:01:15;101725.84;;;9.03;100.00
63090;BME280;49174;43.198;27.824;2022-11-15T19:03:42;101718.78;;;9.02;100.00
63090;BME280;49174;43.198;27.824;2022-11-15T19:06:13;101725.31;;;8.99;100.00
63090;BME280;49174;43.198;27.824;2022-11-15T19:08:40;101725.16;;;9.01;100.00
63090;BME280;49174;43.198;27.824;2022-11-15T19:11:15;101724.84;;;9.04;100.00
63090;BME280;49174;43.198;27.824;2022-11-15T19:13:42;101726.84;;;9.02;99.50
63090;BME280;49174;43.198;27.824;2022-11-15T19:16:10;101721.47;;;9.02;99.27
63090;BME280;49174;43.198;27.824;2022-11-15T19:18:37;101719.09;;;8.99;98.68
63090;BME280;49174;43.198;27.824;2022-11-15T19:21:08;101716.03;;;8.93;99.13
63090;BME280;49174;43.198;27.824;2022-11-15T19:23:35;101719.25;;;8.89;99.99
63090;BME280;49174;43.198;27.824;2022-11-15T19:26:02;101710.81;;;8.84;100.00
63090;BME280;49174;43.198;27.824;2022-11-15T19:28:28;101719.34;;;8.79;100.00
63090;BME280;49174;43.198;27.824;2022-11-15T19:31:02;101721.22;;;8.79;99.60
63090;BME280;49174;43.198;27.824;2022-11-15T19:33:28;101722.38;;;8.76;98.77
63090;BME280;49174;43.198;27.824;2022-11-15T19:36:04;101722.66;;;8.65;99.18
63090;BME280;49174;43.198;27.824;2022-11-15T19:38:31;101718.56;;;8.61;99.31
63090;BME280;49174;43.198;27.824;2022-11-15T19:40:58;101710.81;;;8.58;99.80
63090;BME280;49174;43.198;27.824;2022-11-15T19:43:25;101709.28;;;8.55;100.00
63090;BME280;49174;43.198;27.824;2022-11-15T19:46:01;101703.25;;;8.53;99.96
63090;BME280;49174;43.198;27.824;2022-11-15T19:48:28;101706.09;;;8.52;99.68
63090;BME280;49174;43.198;27.824;2022-11-15T19:50:53;101702.06;;;8.47;99.51
63090;BME280;49174;43.198;27.824;2022-11-15T19:53:19;101697.84;;;8.45;100.00
63090;BME280;49174;43.198;27.824;2022-11-15T19:56:12;101702.38;;;8.44;98.93
63090;BME280;49174;43.198;27.824;2022-11-15T19:58:38;101700.66;;;8.43;98.73
63090;BME280;49174;43.198;27.824;2022-11-15T20:01:25;101692.19;;;8.38;99.00
63090;BME280;49174;43.198;27.824;2022-11-15T20:03:52;101689.00;;;8.35;99.14
63090;BME280;49174;43.198;27.824;2022-11-15T20:06:39;101694.19;;;8.28;99.32
63090;BME280;49174;43.198;27.824;2022-11-15T20:09:05;101689.44;;;8.22;98.90
63090;BME280;49174;43.198;27.824;2022-11-15T20:11:32;101687.91;;;8.19;99.09
63090;BME280;49174;43.198;27.824;2022-11-15T20:13:59;101683.69;;;8.17;99.55
63090;BME280;49174;43.198;27.824;2022-11-15T20:16:26;101681.13;;;8.15;97.74
63090;BME280;49174;43.198;27.824;2022-11-15T20:18:52;101674.09;;;8.14;96.14
63090;BME280;49174;43.198;27.824;2022-11-15T20:21:18;101670.13;;;8.00;96.23
63090;BME280;49174;43.198;27.824;2022-11-15T20:23:44;101679.06;;;7.83;96.75
63090;BME280;49174;43.198;27.824;2022-11-15T20:26:10;101675.44;;;7.74;97.63
63090;BME280;49174;43.198;27.824;2022-11-15T20:28:37;101665.72;;;7.73;97.33
63090;BME280;49174;43.198;27.824;2022-11-15T20:31:03;101664.81;;;7.65;96.92
63090;BME280;49174;43.198;27.824;2022-11-15T20:33:29;101672.66;;;7.58;98.29
63090;BME280;49174;43.198;27.824;2022-11-15T20:35:55;101668.13;;;7.58;97.32
63090;BME280;49174;43.198;27.824;2022-11-15T20:38:21;101652.91;;;7.49;96.35
63090;BME280;49174;43.198;27.824;2022-11-15T20:40:48;101649.31;;;7.41;95.31